createdAt,value
2023-01-10T00:04:51.166Z,5.09
2023-01-10T00:09:54.079Z,5.11
2023-01-10T00:14:56.869Z,5.10
2023-01-10T00:19:59.670Z,5.10
2023-01-10T00:25:02.472Z,5.11
2023-01-10T00:30:14.196Z,5.12
2023-01-10T00:35:17.186Z,5.12
2023-01-10T00:40:20.098Z,5.12
2023-01-10T00:45:25.125Z,5.13
2023-01-10T00:50:27.949Z,5.14
2023-01-10T00:55:31.574Z,5.16
2023-01-10T01:00:34.870Z,5.16
2023-01-10T01:05:42.483Z,5.17
2023-01-10T01:10:46.226Z,5.17
2023-01-10T01:15:49.703Z,5.15
2023-01-10T01:20:57.688Z,5.14
2023-01-10T01:26:00.879Z,5.12
2023-01-10T01:31:08.458Z,5.12
2023-01-10T01:36:12.682Z,5.14
2023-01-10T01:41:34.291Z,5.14
2023-01-10T01:46:39.868Z,5.17
2023-01-10T01:51:46.014Z,5.22
2023-01-10T01:56:52.915Z,5.25
2023-01-10T02:02:01.618Z,5.25
2023-01-10T02:07:04.731Z,5.24
2023-01-10T02:12:09.179Z,5.24
2023-01-10T02:17:12.407Z,5.24
2023-01-10T02:22:30.575Z,5.25
2023-01-10T02:27:54.962Z,5.26
2023-01-10T02:33:09.516Z,5.26
2023-01-10T02:38:37.142Z,5.28
2023-01-10T02:43:47.108Z,5.29
2023-01-10T02:48:50.649Z,5.30
2023-01-10T02:53:55.855Z,5.31
2023-01-10T02:59:30.033Z,5.30
2023-01-10T03:04:52.617Z,5.28
2023-01-10T03:10:02.229Z,5.26
2023-01-10T03:15:08.169Z,5.26
2023-01-10T03:20:12.405Z,5.26
2023-01-10T03:25:19.876Z,5.27
2023-01-10T03:30:36.808Z,5.27
2023-01-10T03:35:52.270Z,5.28
2023-01-10T03:41:21.321Z,5.28
2023-01-10T03:46:31.501Z,5.25
2023-01-10T03:51:37.675Z,5.21
2023-01-10T03:56:50.034Z,5.18
2023-01-10T04:01:54.031Z,5.15
2023-01-10T04:06:57.551Z,5.11
2023-01-10T04:12:00.356Z,5.05
2023-01-10T04:17:03.251Z,5.00
2023-01-10T04:22:06.465Z,4.93
2023-01-10T04:27:09.273Z,4.84
2023-01-10T04:32:12.543Z,4.75
2023-01-10T04:37:15.292Z,4.66
2023-01-10T04:42:18.497Z,4.57
2023-01-10T04:47:21.413Z,4.46
2023-01-10T04:52:26.252Z,4.35
2023-01-10T04:57:28.927Z,4.27
2023-01-10T05:02:31.738Z,4.21
2023-01-10T05:07:35.268Z,4.19
2023-01-10T05:12:38.023Z,4.18
2023-01-10T05:17:41.184Z,4.17
2023-01-10T05:22:45.006Z,4.15
2023-01-10T05:27:47.688Z,4.14
2023-01-10T05:32:50.604Z,4.16
2023-01-10T05:37:54.167Z,4.18
2023-01-10T05:42:57.029Z,4.21
2023-01-10T05:47:59.912Z,4.27
2023-01-10T05:53:05.922Z,4.34
2023-01-10T05:58:11.378Z,4.42
2023-01-10T06:03:14.390Z,4.44
2023-01-10T06:08:17.799Z,4.41
2023-01-10T06:13:21.011Z,4.38
2023-01-10T06:18:24.034Z,4.36
2023-01-10T06:23:26.840Z,4.35
2023-01-10T06:28:29.576Z,4.37
2023-01-10T06:33:32.315Z,4.37
2023-01-10T06:38:35.122Z,4.33
2023-01-10T06:43:37.920Z,4.28
2023-01-10T06:48:40.722Z,4.24
2023-01-10T06:53:44.492Z,4.19
2023-01-10T06:58:49.534Z,4.18
2023-01-10T07:03:52.398Z,4.20
2023-01-10T07:08:55.612Z,4.23
2023-01-10T07:13:58.631Z,4.24
2023-01-10T07:19:02.511Z,4.24
2023-01-10T07:24:06.002Z,4.24
2023-01-10T07:29:08.861Z,4.26
2023-01-10T07:34:12.490Z,4.30
2023-01-10T07:39:15.219Z,4.34
2023-01-10T07:44:18.431Z,4.35
2023-01-10T07:49:21.148Z,4.34
2023-01-10T07:54:24.325Z,4.36
2023-01-10T07:59:27.112Z,4.42
2023-01-10T08:04:29.883Z,4.50
2023-01-10T08:09:32.599Z,4.59
2023-01-10T08:14:36.102Z,4.70
2023-01-10T08:19:39.251Z,4.77
2023-01-10T08:24:42.066Z,4.82
2023-01-10T08:29:44.851Z,4.89
2023-01-10T08:34:47.614Z,4.98
2023-01-10T08:39:50.400Z,5.10
2023-01-10T08:44:54.972Z,5.21
2023-01-10T08:49:57.925Z,5.28
2023-01-10T08:55:00.699Z,5.35
2023-01-10T09:00:05.523Z,5.40
2023-01-10T09:05:18.515Z,5.46
2023-01-10T09:10:30.027Z,5.49
2023-01-10T09:15:35.573Z,5.51
2023-01-10T09:20:40.866Z,5.60
2023-01-10T09:25:44.247Z,5.70
2023-01-10T09:30:47.888Z,5.80
2023-01-10T09:35:50.758Z,5.90
2023-01-10T09:41:18.658Z,6.04
2023-01-10T09:46:27.005Z,6.17
2023-01-10T09:51:38.023Z,6.27
2023-01-10T09:56:41.371Z,6.41
2023-01-10T10:01:45.247Z,6.53
2023-01-10T10:06:52.627Z,6.62
2023-01-10T10:12:29.398Z,6.70
2023-01-10T10:17:50.559Z,6.78
2023-01-10T10:23:34.131Z,6.85
2023-01-10T10:29:29.469Z,6.91
2023-01-10T10:34:41.375Z,6.97
2023-01-10T10:40:13.760Z,7.02
2023-01-10T10:45:31.907Z,7.04
2023-01-10T10:50:35.894Z,7.03
2023-01-10T10:55:39.483Z,7.01
2023-01-10T11:00:42.642Z,6.89
2023-01-10T11:05:47.956Z,6.71
2023-01-10T11:10:56.827Z,6.55
2023-01-10T11:16:20.277Z,6.52
2023-01-10T11:21:25.233Z,6.52
2023-01-10T11:26:40.726Z,6.50
2023-01-10T11:31:45.961Z,6.48
2023-01-10T11:37:01.591Z,6.51
2023-01-10T11:42:34.186Z,6.56
2023-01-10T11:47:45.323Z,6.65
2023-01-10T11:52:50.238Z,6.61
2023-01-10T11:58:13.571Z,6.41
2023-01-10T12:03:19.009Z,6.14
2023-01-10T12:08:30.114Z,5.95
2023-01-10T12:13:50.922Z,5.66
2023-01-10T12:19:00.464Z,5.42
2023-01-10T12:24:10.942Z,5.32
2023-01-10T12:29:25.662Z,5.30
2023-01-10T12:34:58.327Z,5.30
2023-01-10T12:40:17.207Z,5.38
2023-01-10T12:45:27.109Z,5.56
2023-01-10T12:50:35.821Z,6.00
2023-01-10T12:55:44.574Z,6.85
2023-01-10T13:00:54.174Z,7.61
2023-01-10T13:05:58.727Z,7.83
2023-01-10T13:11:03.411Z,7.63
2023-01-10T13:16:36.735Z,7.40
2023-01-10T13:21:42.396Z,7.21
2023-01-10T13:27:05.175Z,7.07
2023-01-10T13:32:27.255Z,6.90
2023-01-10T13:37:39.017Z,6.74
2023-01-10T13:43:00.470Z,6.57
2023-01-10T13:48:04.815Z,6.34
2023-01-10T13:53:08.659Z,6.14
2023-01-10T13:58:14.551Z,5.91
2023-01-10T14:03:59.705Z,5.75
2023-01-10T14:09:26.770Z,5.65
2023-01-10T14:14:40.006Z,5.55
2023-01-10T14:19:47.131Z,5.37
2023-01-10T14:24:53.128Z,5.28
2023-01-10T14:30:00.977Z,5.22
2023-01-10T14:35:08.226Z,5.10
2023-01-10T14:40:33.054Z,4.91
2023-01-10T14:45:45.158Z,4.66
2023-01-10T14:50:47.966Z,4.40
2023-01-10T14:55:50.768Z,4.22
2023-01-10T15:00:55.338Z,4.06
2023-01-10T15:05:58.233Z,3.92
2023-01-10T15:11:06.672Z,3.77
2023-01-10T15:21:24.551Z,3.54
2023-01-10T15:26:34.329Z,3.48
2023-01-10T15:31:39.069Z,3.45
2023-01-10T15:36:57.135Z,3.46
2023-01-10T15:42:03.738Z,3.45
2023-01-10T15:47:29.286Z,3.46
2023-01-10T15:52:33.080Z,3.47
2023-01-10T15:57:36.291Z,3.48
2023-01-10T16:02:39.883Z,3.48
2023-01-10T16:07:45.468Z,3.47
2023-01-10T16:13:07.310Z,3.46
2023-01-10T16:18:10.121Z,3.45
2023-01-10T16:23:32.577Z,3.45
2023-01-10T16:28:36.503Z,3.44
2023-01-10T16:33:39.215Z,3.46
2023-01-10T16:38:42.433Z,3.49
2023-01-10T16:43:45.184Z,3.50
2023-01-10T16:48:50.167Z,3.51
2023-01-10T16:53:53.475Z,3.52
2023-01-10T16:58:58.026Z,3.53
2023-01-10T17:04:01.672Z,3.52
2023-01-10T17:09:05.269Z,3.51
2023-01-10T17:14:13.800Z,3.51
2023-01-10T17:19:16.808Z,3.51
2023-01-10T17:24:19.922Z,3.52
2023-01-10T17:29:23.473Z,3.52
2023-01-10T17:34:26.329Z,3.52
2023-01-10T17:39:29.296Z,3.52
2023-01-10T17:44:32.455Z,3.52
2023-01-10T17:49:36.484Z,3.54
2023-01-10T17:54:39.181Z,3.54
2023-01-10T17:59:42.012Z,3.54
2023-01-10T18:04:45.293Z,3.57
2023-01-10T18:09:48.732Z,3.58
2023-01-10T18:14:51.625Z,3.59
2023-01-10T18:19:54.427Z,3.57
2023-01-10T18:24:58.102Z,3.52
2023-01-10T18:30:00.863Z,3.48
2023-01-10T18:35:03.822Z,3.45
2023-01-10T18:40:07.669Z,3.44
2023-01-10T18:45:10.741Z,3.43
2023-01-10T18:50:13.492Z,3.43
2023-01-10T18:55:16.700Z,3.45
2023-01-10T19:00:20.328Z,3.47
2023-01-10T19:05:23.228Z,3.50
2023-01-10T19:10:25.959Z,3.53
2023-01-10T19:15:29.425Z,3.57
2023-01-10T19:20:32.145Z,3.60
2023-01-10T19:25:35.519Z,3.62
2023-01-10T19:30:38.368Z,3.64
2023-01-10T19:35:41.213Z,3.64
2023-01-10T19:40:44.063Z,3.66
2023-01-10T19:45:46.866Z,3.66
2023-01-10T19:50:49.709Z,3.65
2023-01-10T19:56:05.012Z,3.66
2023-01-10T20:01:08.986Z,3.68
2023-01-10T20:06:17.178Z,3.69
2023-01-10T20:11:21.590Z,3.72
2023-01-10T20:16:24.736Z,3.72
2023-01-10T20:21:28.385Z,3.70
2023-01-10T20:26:31.228Z,3.71
2023-01-10T20:31:34.223Z,3.73
2023-01-10T20:36:37.121Z,3.74
2023-01-10T20:41:39.831Z,3.74
2023-01-10T20:46:42.646Z,3.79
2023-01-10T20:51:45.495Z,3.86
2023-01-10T20:56:48.551Z,3.90
2023-01-10T21:01:51.314Z,3.96
2023-01-10T21:06:54.332Z,4.02
2023-01-10T21:12:07.411Z,4.05
2023-01-10T21:17:16.816Z,4.10
2023-01-10T21:22:19.662Z,4.11
2023-01-10T21:27:22.835Z,4.13
2023-01-10T21:32:25.636Z,4.17
2023-01-10T21:37:28.376Z,4.21
2023-01-10T21:42:44.808Z,4.26
2023-01-10T21:47:49.077Z,4.29
2023-01-10T21:52:51.897Z,4.29
2023-01-10T21:57:55.312Z,4.29
2023-01-10T22:02:59.785Z,4.31
2023-01-10T22:08:02.816Z,4.34
2023-01-10T22:13:05.565Z,4.36
2023-01-10T22:18:09.168Z,4.38
2023-01-10T22:23:11.877Z,4.41
2023-01-10T22:28:15.053Z,4.43
2023-01-10T22:33:17.757Z,4.42
2023-01-10T22:38:20.498Z,4.37
2023-01-10T22:43:23.296Z,4.31
2023-01-10T22:48:26.115Z,4.26
2023-01-10T22:53:29.101Z,4.20
2023-01-10T22:58:31.851Z,4.18
2023-01-10T23:03:34.974Z,4.13
2023-01-10T23:08:40.280Z,4.08
2023-01-10T23:13:44.120Z,4.03
2023-01-10T23:18:50.195Z,4.04
2023-01-10T23:23:53.292Z,4.06
2023-01-10T23:28:56.087Z,4.06
2023-01-10T23:33:59.099Z,4.05
2023-01-10T23:39:01.892Z,4.06
2023-01-10T23:44:04.798Z,4.09
2023-01-10T23:49:07.601Z,4.11
2023-01-10T23:54:10.284Z,4.15
2023-01-10T23:59:13.010Z,4.16
